createdAt,value
2018-12-29T00:00:57.629Z,34.20
2018-12-29T00:02:14.045Z,32.67
2018-12-29T00:03:30.332Z,32.45
2018-12-29T00:04:46.339Z,32.75
2018-12-29T00:06:02.524Z,38.50
2018-12-29T00:07:18.430Z,35.52
2018-12-29T00:08:34.303Z,36.25
2018-12-29T00:09:50.171Z,33.30
2018-12-29T00:11:06.013Z,34.92
2018-12-29T00:12:21.768Z,30.00
2018-12-29T00:13:37.601Z,31.93
2018-12-29T00:14:55.132Z,29.50
2018-12-29T00:16:11.681Z,31.68
2018-12-29T00:17:27.618Z,33.15
2018-12-29T00:18:43.846Z,31.87
2018-12-29T00:20:00.221Z,34.27
2018-12-29T00:21:15.912Z,33.67
2018-12-29T00:22:31.880Z,35.88
2018-12-29T00:23:47.778Z,33.92
2018-12-29T00:25:03.716Z,35.13
2018-12-29T00:26:20.064Z,33.08
2018-12-29T00:27:35.847Z,36.35
2018-12-29T00:28:51.886Z,35.15
2018-12-29T00:30:08.262Z,33.60
2018-12-29T00:31:24.529Z,33.60
2018-12-29T00:32:40.304Z,33.38
2018-12-29T00:33:56.144Z,34.90
2018-12-29T00:35:12.459Z,31.82
2018-12-29T00:36:28.352Z,45.25
2018-12-29T00:37:44.205Z,37.67
2018-12-29T00:38:59.970Z,32.45
2018-12-29T00:40:15.814Z,31.40
2018-12-29T00:41:31.952Z,33.00
2018-12-29T00:42:47.840Z,29.20
2018-12-29T00:44:03.728Z,29.25
2018-12-29T00:45:19.987Z,29.87
2018-12-29T00:46:36.071Z,27.40
2018-12-29T00:47:51.912Z,25.82
2018-12-29T00:49:08.454Z,28.15
2018-12-29T00:50:24.132Z,27.75
2018-12-29T00:51:40.011Z,31.05
2018-12-29T00:52:55.916Z,27.65
2018-12-29T00:54:12.480Z,28.05
2018-12-29T00:55:28.467Z,30.95
2018-12-29T00:56:44.664Z,32.38
2018-12-29T00:58:00.732Z,27.05
2018-12-29T00:59:16.632Z,29.70
2018-12-29T01:00:32.900Z,28.27
2018-12-29T01:01:49.035Z,29.82
2018-12-29T01:03:04.858Z,30.02
2018-12-29T01:04:21.104Z,29.30
2018-12-29T01:05:36.948Z,26.73
2018-12-29T01:06:52.703Z,29.23
2018-12-29T01:08:08.976Z,26.95
2018-12-29T01:09:25.348Z,28.00
2018-12-29T01:10:41.148Z,27.52
2018-12-29T01:11:57.444Z,26.75
2018-12-29T01:13:13.379Z,30.52
2018-12-29T01:14:29.416Z,27.27
2018-12-29T01:15:45.757Z,27.15
2018-12-29T01:17:01.967Z,26.23
2018-12-29T01:18:18.143Z,30.75
2018-12-29T01:19:33.840Z,30.00
2018-12-29T01:20:49.780Z,29.18
2018-12-29T01:22:06.045Z,28.83
2018-12-29T01:23:22.191Z,29.40
2018-12-29T01:24:38.248Z,25.60
2018-12-29T01:25:54.032Z,26.95
2018-12-29T01:27:09.948Z,26.07
2018-12-29T01:28:25.768Z,29.55
2018-12-29T01:29:41.571Z,29.15
2018-12-29T01:30:57.586Z,28.70
2018-12-29T01:32:13.467Z,25.97
2018-12-29T01:33:29.623Z,28.20
2018-12-29T01:34:45.720Z,27.75
2018-12-29T01:36:01.610Z,24.80
2018-12-29T01:37:17.794Z,25.70
2018-12-29T01:38:33.611Z,26.52
2018-12-29T01:39:49.435Z,25.20
2018-12-29T01:41:05.560Z,27.35
2018-12-29T01:42:21.600Z,25.75
2018-12-29T01:43:37.694Z,29.15
2018-12-29T01:44:53.783Z,29.57
2018-12-29T01:46:09.892Z,26.85
2018-12-29T01:47:25.789Z,28.92
2018-12-29T01:48:42.014Z,24.60
2018-12-29T01:49:58.204Z,27.27
2018-12-29T01:51:14.256Z,25.70
2018-12-29T01:52:30.256Z,24.10
2018-12-29T01:53:46.235Z,29.00
2018-12-29T01:55:02.162Z,29.85
2018-12-29T01:56:17.963Z,25.17
2018-12-29T01:57:34.007Z,28.52
2018-12-29T01:58:49.992Z,29.72
2018-12-29T02:00:05.786Z,26.33
2018-12-29T02:01:21.664Z,28.05
2018-12-29T02:02:37.714Z,27.95
2018-12-29T02:03:53.653Z,29.75
2018-12-29T02:05:10.859Z,29.87
2018-12-29T02:06:26.567Z,26.87
2018-12-29T02:07:42.675Z,27.90
2018-12-29T02:08:58.616Z,25.65
2018-12-29T02:10:14.646Z,28.38
2018-12-29T02:11:30.508Z,25.92
2018-12-29T02:12:46.722Z,28.52
2018-12-29T02:14:02.535Z,25.48
2018-12-29T02:15:24.636Z,24.63
2018-12-29T02:16:36.616Z,25.10
2018-12-29T02:17:52.784Z,25.17
2018-12-29T02:19:09.047Z,25.40
2018-12-29T02:20:25.000Z,26.85
2018-12-29T02:21:41.315Z,26.05
2018-12-29T02:22:57.730Z,27.90
2018-12-29T02:24:13.500Z,26.20
2018-12-29T02:25:29.440Z,27.35
2018-12-29T02:26:45.361Z,23.67
2018-12-29T02:28:01.662Z,23.62
2018-12-29T02:29:17.993Z,25.43
2018-12-29T02:30:34.060Z,24.27
2018-12-29T02:31:49.920Z,25.17
2018-12-29T02:33:06.145Z,26.33
2018-12-29T02:34:22.320Z,25.23
2018-12-29T02:35:37.980Z,21.42
2018-12-29T02:36:53.570Z,21.20
2018-12-29T02:38:09.627Z,23.60
2018-12-29T02:39:25.418Z,24.37
2018-12-29T02:40:41.652Z,23.92
2018-12-29T02:41:57.752Z,24.82
2018-12-29T02:43:13.711Z,27.67
2018-12-29T02:44:29.455Z,24.32
2018-12-29T02:45:45.316Z,25.25
2018-12-29T02:47:01.465Z,25.00
2018-12-29T02:48:17.617Z,22.00
2018-12-29T02:49:33.408Z,21.12
2018-12-29T02:50:49.161Z,23.40
2018-12-29T02:52:05.287Z,25.50
2018-12-29T02:53:21.320Z,23.02
2018-12-29T02:54:37.521Z,22.45
2018-12-29T02:55:53.844Z,20.65
2018-12-29T02:57:10.031Z,21.12
2018-12-29T02:58:26.138Z,25.48
2018-12-29T02:59:42.179Z,21.68
2018-12-29T03:00:58.345Z,24.85
2018-12-29T03:02:14.228Z,21.35
2018-12-29T03:03:30.569Z,23.30
2018-12-29T03:04:46.776Z,22.55
2018-12-29T03:06:02.630Z,22.85
2018-12-29T03:07:18.499Z,21.48
2018-12-29T03:08:34.815Z,24.87
2018-12-29T03:09:51.051Z,24.30
2018-12-29T03:11:07.187Z,21.55
2018-12-29T03:12:22.995Z,25.40
2018-12-29T03:13:39.152Z,22.20
2018-12-29T03:14:55.036Z,23.25
2018-12-29T03:16:10.946Z,21.60
2018-12-29T03:17:26.823Z,20.05
2018-12-29T03:18:42.882Z,18.17
2018-12-29T03:19:58.748Z,23.25
2018-12-29T03:21:16.095Z,23.00
2018-12-29T03:22:32.250Z,21.73
2018-12-29T03:23:48.077Z,23.57
2018-12-29T03:25:03.697Z,22.37
2018-12-29T03:26:19.555Z,21.90
2018-12-29T03:27:35.461Z,22.05
2018-12-29T03:28:51.687Z,22.73
2018-12-29T03:30:07.885Z,23.85
2018-12-29T03:31:24.103Z,23.32
2018-12-29T03:32:40.011Z,21.05
2018-12-29T03:33:55.887Z,23.95
2018-12-29T03:35:11.763Z,25.05
2018-12-29T03:36:27.675Z,21.62
2018-12-29T03:37:43.547Z,24.05
2018-12-29T03:38:59.648Z,20.88
2018-12-29T03:40:15.479Z,24.57
2018-12-29T03:41:31.746Z,20.92
2018-12-29T03:42:48.007Z,27.32
2018-12-29T03:44:03.712Z,24.92
2018-12-29T03:45:19.863Z,24.67
2018-12-29T03:46:36.088Z,23.85
2018-12-29T03:47:52.428Z,22.37
2018-12-29T03:49:08.352Z,23.83
2018-12-29T03:50:24.110Z,21.90
2018-12-29T03:51:39.774Z,23.73
2018-12-29T03:52:56.003Z,22.55
2018-12-29T03:54:12.734Z,22.52
2018-12-29T03:55:28.464Z,21.77
2018-12-29T03:56:44.665Z,25.68
2018-12-29T03:58:00.799Z,24.02
2018-12-29T03:59:17.099Z,22.98
2018-12-29T04:00:33.009Z,23.18
2018-12-29T04:01:48.992Z,24.47
2018-12-29T04:03:05.258Z,23.75
2018-12-29T04:04:20.981Z,22.40
2018-12-29T04:05:37.343Z,21.77
2018-12-29T04:06:53.569Z,23.25
2018-12-29T04:08:09.579Z,24.90
2018-12-29T04:09:25.649Z,21.80
2018-12-29T04:10:41.660Z,22.10
2018-12-29T04:11:57.649Z,21.17
2018-12-29T04:13:13.657Z,24.70
2018-12-29T04:14:29.642Z,21.82
2018-12-29T04:15:45.580Z,22.05
2018-12-29T04:17:01.453Z,24.95
2018-12-29T04:18:17.696Z,22.93
2018-12-29T04:19:33.840Z,25.92
2018-12-29T04:20:49.911Z,27.85
2018-12-29T04:22:05.956Z,24.25
2018-12-29T04:23:21.843Z,26.00
2018-12-29T04:24:38.007Z,23.40
2018-12-29T04:25:53.907Z,24.05
2018-12-29T04:27:10.191Z,24.27
2018-12-29T04:28:25.859Z,22.98
2018-12-29T04:29:41.913Z,25.12
2018-12-29T04:30:58.098Z,23.83
2018-12-29T04:32:14.479Z,24.07
2018-12-29T04:33:30.357Z,23.75
2018-12-29T04:34:46.239Z,21.90
2018-12-29T04:36:02.388Z,23.67
2018-12-29T04:37:18.383Z,25.55
2018-12-29T04:38:34.637Z,21.50
2018-12-29T04:39:50.907Z,23.77
2018-12-29T04:41:06.637Z,18.87
2018-12-29T04:42:22.528Z,23.45
2018-12-29T04:43:38.452Z,23.83
2018-12-29T04:44:54.472Z,21.93
2018-12-29T04:46:10.639Z,20.48
2018-12-29T04:47:27.035Z,21.17
2018-12-29T04:48:43.196Z,23.32
2018-12-29T04:49:59.114Z,24.15
2018-12-29T04:51:15.425Z,20.55
2018-12-29T04:52:31.112Z,22.10
2018-12-29T04:53:47.445Z,23.80
2018-12-29T04:55:03.756Z,20.90
2018-12-29T04:56:19.704Z,21.02
2018-12-29T04:57:35.596Z,23.25
2018-12-29T04:58:51.852Z,22.30
2018-12-29T05:00:08.209Z,24.52
2018-12-29T05:01:24.735Z,24.80
2018-12-29T05:02:40.812Z,22.10
2018-12-29T05:03:56.647Z,21.97
2018-12-29T05:05:13.008Z,23.80
2018-12-29T05:06:29.372Z,23.57
2018-12-29T05:07:45.346Z,24.15
2018-12-29T05:09:01.405Z,22.65
2018-12-29T05:10:17.259Z,21.50
2018-12-29T05:11:33.085Z,22.13
2018-12-29T05:12:49.117Z,22.52
2018-12-29T05:14:05.055Z,21.80
2018-12-29T05:15:20.900Z,26.20
2018-12-29T05:16:36.619Z,25.77
2018-12-29T05:17:52.818Z,22.82
2018-12-29T05:19:08.754Z,27.17
2018-12-29T05:20:24.472Z,24.43
2018-12-29T05:21:40.183Z,21.55
2018-12-29T05:22:56.043Z,24.75
2018-12-29T05:24:12.045Z,27.37
2018-12-29T05:25:27.965Z,27.22
2018-12-29T05:26:43.804Z,23.95
2018-12-29T05:27:59.768Z,24.07
2018-12-29T05:29:15.916Z,25.75
2018-12-29T05:30:31.611Z,25.23
2018-12-29T05:31:47.935Z,26.57
2018-12-29T05:33:04.244Z,23.32
2018-12-29T05:34:20.114Z,24.63
2018-12-29T05:35:36.052Z,24.47
2018-12-29T05:36:52.076Z,29.18
2018-12-29T05:38:08.080Z,24.50
2018-12-29T05:39:23.928Z,22.62
2018-12-29T05:40:40.048Z,23.95
2018-12-29T05:41:56.013Z,22.62
2018-12-29T05:43:12.078Z,23.75
2018-12-29T05:44:27.840Z,23.75
2018-12-29T05:45:43.832Z,27.90
2018-12-29T05:46:59.867Z,26.42
2018-12-29T05:48:16.016Z,27.35
2018-12-29T05:49:32.147Z,27.65
2018-12-29T05:50:48.172Z,26.48
2018-12-29T05:52:03.903Z,26.82
2018-12-29T05:53:19.935Z,30.60
2018-12-29T05:54:35.817Z,24.67
2018-12-29T05:55:51.591Z,27.48
2018-12-29T05:57:07.977Z,29.60
2018-12-29T05:58:23.592Z,24.12
2018-12-29T05:59:39.704Z,26.55
2018-12-29T06:00:55.663Z,24.80
2018-12-29T06:02:11.727Z,25.65
2018-12-29T06:03:27.352Z,29.87
2018-12-29T06:04:43.072Z,25.92
2018-12-29T06:05:59.391Z,25.57
2018-12-29T06:07:15.324Z,26.27
2018-12-29T06:08:31.406Z,25.02
2018-12-29T06:09:47.156Z,24.85
2018-12-29T06:11:02.814Z,25.08
2018-12-29T06:12:19.143Z,24.90
2018-12-29T06:13:35.394Z,24.45
2018-12-29T06:14:51.068Z,28.55
2018-12-29T06:16:06.917Z,25.82
2018-12-29T06:17:22.851Z,24.98
2018-12-29T06:18:39.301Z,26.62
2018-12-29T06:19:55.448Z,26.10
2018-12-29T06:21:11.692Z,28.35
2018-12-29T06:22:27.635Z,25.95
2018-12-29T06:23:43.791Z,28.55
2018-12-29T06:24:59.551Z,27.65
2018-12-29T06:26:15.691Z,27.02
2018-12-29T06:27:31.563Z,28.67
2018-12-29T06:28:47.743Z,25.97
2018-12-29T06:30:03.832Z,27.70
2018-12-29T06:31:19.636Z,26.25
2018-12-29T06:32:36.022Z,25.12
2018-12-29T06:33:52.133Z,28.62
2018-12-29T06:35:08.511Z,25.17
2018-12-29T06:36:24.583Z,29.48
2018-12-29T06:37:40.552Z,27.07
2018-12-29T06:38:56.571Z,27.60
2018-12-29T06:40:12.420Z,25.65
2018-12-29T06:41:28.368Z,28.80
2018-12-29T06:42:44.471Z,27.42
2018-12-29T06:44:00.439Z,30.85
2018-12-29T06:45:16.235Z,29.12
2018-12-29T06:46:35.047Z,25.95
2018-12-29T06:47:49.332Z,27.07
2018-12-29T06:49:05.235Z,29.70
2018-12-29T06:50:21.212Z,30.52
2018-12-29T06:51:39.154Z,27.87
2018-12-29T06:52:55.525Z,29.48
2018-12-29T06:54:11.527Z,28.32
2018-12-29T06:55:27.521Z,29.25
2018-12-29T06:56:43.361Z,28.65
2018-12-29T06:57:59.651Z,26.25
2018-12-29T06:59:15.696Z,27.50
2018-12-29T07:00:31.944Z,30.77
2018-12-29T07:01:47.721Z,31.17
2018-12-29T07:03:03.807Z,31.02
2018-12-29T07:04:19.596Z,26.82
2018-12-29T07:05:35.382Z,31.68
2018-12-29T07:06:51.701Z,28.12
2018-12-29T07:08:07.928Z,28.73
2018-12-29T07:09:24.029Z,30.12
2018-12-29T07:10:40.044Z,28.62
2018-12-29T07:11:56.275Z,28.05
2018-12-29T07:13:12.272Z,31.05
2018-12-29T07:14:28.435Z,30.48
2018-12-29T07:15:44.325Z,27.95
2018-12-29T07:17:00.339Z,31.55
2018-12-29T07:18:16.249Z,31.35
2018-12-29T07:19:32.069Z,29.27
2018-12-29T07:20:47.793Z,29.80
2018-12-29T07:22:03.477Z,28.45
2018-12-29T07:23:19.276Z,28.05
2018-12-29T07:24:35.111Z,27.45
2018-12-29T07:25:50.568Z,27.20
2018-12-29T07:27:06.868Z,30.12
2018-12-29T07:28:22.903Z,28.70
2018-12-29T07:29:38.816Z,26.90
2018-12-29T07:30:55.031Z,27.67
2018-12-29T07:32:11.242Z,29.15
2018-12-29T07:33:27.250Z,26.87
2018-12-29T07:34:43.445Z,30.50
2018-12-29T07:35:59.572Z,28.50
2018-12-29T07:37:15.804Z,28.85
2018-12-29T07:38:31.763Z,28.47
2018-12-29T07:39:47.591Z,28.80
2018-12-29T07:41:03.520Z,29.60
2018-12-29T07:42:19.856Z,34.08
2018-12-29T07:43:35.662Z,33.67
2018-12-29T07:44:51.779Z,32.75
2018-12-29T07:46:07.679Z,40.78
2018-12-29T07:47:23.350Z,34.67
2018-12-29T07:48:39.680Z,30.35
2018-12-29T07:49:56.104Z,30.68
2018-12-29T07:51:12.275Z,38.17
2018-12-29T07:52:28.225Z,31.10
2018-12-29T07:53:44.084Z,35.83
2018-12-29T07:54:59.971Z,38.98
2018-12-29T07:56:15.875Z,36.68
2018-12-29T07:57:31.720Z,35.92
2018-12-29T07:58:47.276Z,31.65
2018-12-29T08:00:03.481Z,33.08
2018-12-29T08:01:19.492Z,31.17
2018-12-29T08:02:35.798Z,30.52
2018-12-29T08:03:51.834Z,32.48
2018-12-29T08:05:07.830Z,35.33
2018-12-29T08:06:23.927Z,32.05
2018-12-29T08:07:39.686Z,32.40
2018-12-29T08:08:55.572Z,33.83
2018-12-29T08:10:11.456Z,33.20
2018-12-29T08:11:27.175Z,37.35
2018-12-29T08:12:43.299Z,35.03
2018-12-29T08:13:59.186Z,35.98
2018-12-29T08:15:15.636Z,37.38
2018-12-29T08:16:31.660Z,39.25
2018-12-29T08:17:47.550Z,35.52
2018-12-29T08:19:03.600Z,32.98
2018-12-29T08:20:19.673Z,35.78
2018-12-29T08:21:36.013Z,32.70
2018-12-29T08:22:52.319Z,36.15
2018-12-29T08:24:08.580Z,34.15
2018-12-29T08:25:24.643Z,30.82
2018-12-29T08:26:40.957Z,30.52
2018-12-29T08:27:57.044Z,32.63
2018-12-29T08:29:13.072Z,32.58
2018-12-29T08:30:29.035Z,30.80
2018-12-29T08:31:44.895Z,34.38
2018-12-29T08:33:00.828Z,33.65
2018-12-29T08:34:16.796Z,33.67
2018-12-29T08:35:32.809Z,33.00
2018-12-29T08:36:48.627Z,33.58
2018-12-29T08:38:04.556Z,36.40
2018-12-29T08:39:20.816Z,34.58
2018-12-29T08:40:36.755Z,32.50
2018-12-29T08:41:52.668Z,32.75
2018-12-29T08:43:08.983Z,36.63
2018-12-29T08:44:25.107Z,32.98
2018-12-29T08:45:41.177Z,33.15
2018-12-29T08:47:04.269Z,31.15
2018-12-29T08:48:14.791Z,34.05
2018-12-29T08:49:30.982Z,30.20
2018-12-29T08:50:46.976Z,29.18
2018-12-29T08:52:02.566Z,36.35
2018-12-29T08:53:18.791Z,34.63
2018-12-29T08:54:35.147Z,30.37
2018-12-29T08:55:51.249Z,33.35
2018-12-29T08:57:07.801Z,34.40
2018-12-29T08:58:23.621Z,34.78
2018-12-29T08:59:39.764Z,36.23
2018-12-29T09:00:55.568Z,33.83
2018-12-29T09:02:11.847Z,34.65
2018-12-29T09:03:27.973Z,39.03
2018-12-29T09:04:44.242Z,36.15
2018-12-29T09:06:00.325Z,33.70
2018-12-29T09:07:16.412Z,26.68
2018-12-29T09:08:32.411Z,31.68
2018-12-29T09:09:48.511Z,33.80
2018-12-29T09:11:04.447Z,28.10
2018-12-29T09:12:20.609Z,33.28
2018-12-29T09:13:36.688Z,32.85
2018-12-29T09:14:52.899Z,32.75
2018-12-29T09:16:08.679Z,29.25
2018-12-29T09:17:24.419Z,30.45
2018-12-29T09:18:39.955Z,33.25
2018-12-29T09:19:56.142Z,28.98
2018-12-29T09:21:12.088Z,26.90
2018-12-29T09:22:27.655Z,31.82
2018-12-29T09:23:43.867Z,31.12
2018-12-29T09:25:00.404Z,28.27
2018-12-29T09:26:16.736Z,28.95
2018-12-29T09:27:32.284Z,30.12
2018-12-29T09:28:48.329Z,29.10
2018-12-29T09:30:04.496Z,30.17
2018-12-29T09:31:20.359Z,26.75
2018-12-29T09:32:36.579Z,29.30
2018-12-29T09:33:52.646Z,31.60
2018-12-29T09:35:08.700Z,37.98
2018-12-29T09:36:24.364Z,32.85
2018-12-29T09:37:40.563Z,32.15
2018-12-29T09:38:56.602Z,30.02
2018-12-29T09:40:12.924Z,31.45
2018-12-29T09:41:29.035Z,29.25
2018-12-29T09:42:45.023Z,30.80
2018-12-29T09:44:00.927Z,32.88
2018-12-29T09:45:17.257Z,29.37
2018-12-29T09:46:33.477Z,34.60
2018-12-29T09:47:49.481Z,31.35
2018-12-29T09:49:05.795Z,29.12
2018-12-29T09:50:21.711Z,29.92
2018-12-29T09:51:37.766Z,28.87
2018-12-29T09:52:53.913Z,31.52
2018-12-29T09:54:09.910Z,31.50
2018-12-29T09:55:25.643Z,27.42
2018-12-29T09:56:41.541Z,31.48
2018-12-29T09:57:57.618Z,28.60
2018-12-29T09:59:13.460Z,29.82
2018-12-29T10:00:29.430Z,29.82
2018-12-29T10:01:45.461Z,27.95
2018-12-29T10:03:01.603Z,32.15
2018-12-29T10:04:17.707Z,29.10
2018-12-29T10:05:33.591Z,29.57
2018-12-29T10:06:49.344Z,34.55
2018-12-29T10:08:05.288Z,31.73
2018-12-29T10:09:21.032Z,30.75
2018-12-29T10:10:37.138Z,35.08
2018-12-29T10:11:53.683Z,31.97
2018-12-29T10:13:10.071Z,34.30
2018-12-29T10:14:25.829Z,31.20
2018-12-29T10:15:41.685Z,28.17
2018-12-29T10:16:57.531Z,31.07
2018-12-29T10:18:13.578Z,29.77
2018-12-29T10:19:29.637Z,30.75
2018-12-29T10:20:45.876Z,27.67
2018-12-29T10:22:02.007Z,31.42
2018-12-29T10:23:17.968Z,28.77
2018-12-29T10:24:33.897Z,30.17
2018-12-29T10:25:49.791Z,36.53
2018-12-29T10:27:05.857Z,33.15
2018-12-29T10:28:21.766Z,38.60
2018-12-29T10:29:37.403Z,34.25
2018-12-29T10:30:53.831Z,35.20
2018-12-29T10:32:09.521Z,29.67
2018-12-29T10:33:25.524Z,30.15
2018-12-29T10:34:41.899Z,30.15
2018-12-29T10:35:58.273Z,29.98
2018-12-29T10:37:13.887Z,29.32
2018-12-29T10:38:29.950Z,26.57
2018-12-29T10:39:46.238Z,26.80
2018-12-29T10:41:02.177Z,29.57
2018-12-29T10:42:18.147Z,29.80
2018-12-29T10:43:33.963Z,27.80
2018-12-29T10:44:49.767Z,29.30
2018-12-29T10:46:05.749Z,26.93
2018-12-29T10:47:21.752Z,29.57
2018-12-29T10:48:37.764Z,28.95
2018-12-29T10:49:54.091Z,28.23
2018-12-29T10:51:10.415Z,25.45
2018-12-29T10:52:26.318Z,26.15
2018-12-29T10:53:42.188Z,26.12
2018-12-29T10:54:58.104Z,23.87
2018-12-29T10:56:13.990Z,27.10
2018-12-29T10:57:29.861Z,26.25
2018-12-29T10:58:45.914Z,25.92
2018-12-29T11:00:01.745Z,23.22
2018-12-29T11:01:17.586Z,27.87
2018-12-29T11:02:33.440Z,28.57
2018-12-29T11:03:49.807Z,25.57
2018-12-29T11:05:05.604Z,23.45
2018-12-29T11:06:21.739Z,25.37
2018-12-29T11:07:37.681Z,27.13
2018-12-29T11:08:54.056Z,27.93
2018-12-29T11:10:10.190Z,27.50
2018-12-29T11:11:26.116Z,29.55
2018-12-29T11:12:42.097Z,25.15
2018-12-29T11:13:58.003Z,27.95
2018-12-29T11:15:14.061Z,27.02
2018-12-29T11:16:29.876Z,27.50
2018-12-29T11:17:45.914Z,30.40
2018-12-29T11:19:02.240Z,26.77
2018-12-29T11:20:18.851Z,26.12
2018-12-29T11:21:52.380Z,31.27
2018-12-29T11:23:01.821Z,27.58
2018-12-29T11:24:18.215Z,36.88
2018-12-29T11:25:34.025Z,38.60
2018-12-29T11:26:49.899Z,33.63
2018-12-29T11:28:05.992Z,43.30
2018-12-29T11:29:22.272Z,32.00
2018-12-29T11:30:38.296Z,59.23
2018-12-29T11:31:54.307Z,65.00
2018-12-29T11:33:10.209Z,59.90
2018-12-29T11:34:26.525Z,42.55
2018-12-29T11:35:42.332Z,32.60
2018-12-29T11:36:58.580Z,29.60
2018-12-29T11:38:14.257Z,26.02
2018-12-29T11:39:30.498Z,26.62
2018-12-29T11:40:46.296Z,27.10
2018-12-29T11:42:02.004Z,25.60
2018-12-29T11:43:18.103Z,23.60
2018-12-29T11:44:34.433Z,23.35
2018-12-29T11:45:50.391Z,26.80
2018-12-29T11:47:06.534Z,26.95
2018-12-29T11:48:22.300Z,28.65
2018-12-29T11:49:38.240Z,29.87
2018-12-29T11:50:54.103Z,28.83
2018-12-29T11:52:10.469Z,29.65
2018-12-29T11:53:26.910Z,27.65
2018-12-29T11:54:43.803Z,28.32
2018-12-29T11:55:59.419Z,27.62
2018-12-29T11:57:15.055Z,27.70
2018-12-29T11:58:30.668Z,29.30
2018-12-29T11:59:46.817Z,26.52
2018-12-29T12:01:02.980Z,29.23
2018-12-29T12:02:24.451Z,27.75
2018-12-29T12:03:37.307Z,31.00
2018-12-29T12:04:53.350Z,27.58
2018-12-29T12:06:09.332Z,25.90
2018-12-29T12:07:25.264Z,27.95
2018-12-29T12:08:41.147Z,23.60
2018-12-29T12:09:57.241Z,24.40
2018-12-29T12:11:13.156Z,25.57
2018-12-29T12:12:29.259Z,23.22
2018-12-29T12:13:45.524Z,23.87
2018-12-29T12:15:01.276Z,21.40
2018-12-29T12:16:17.244Z,20.48
2018-12-29T12:17:33.247Z,18.87
2018-12-29T12:18:49.718Z,20.77
2018-12-29T12:20:05.678Z,23.18
2018-12-29T12:21:21.436Z,21.12
2018-12-29T12:22:37.368Z,18.92
2018-12-29T12:23:53.498Z,20.00
2018-12-29T12:25:09.392Z,21.20
2018-12-29T12:26:25.183Z,21.55
2018-12-29T12:27:41.012Z,20.08
2018-12-29T12:28:57.175Z,22.02
2018-12-29T12:30:14.004Z,20.23
2018-12-29T12:31:30.052Z,19.82
2018-12-29T12:32:46.185Z,21.62
2018-12-29T12:34:02.189Z,18.02
2018-12-29T12:35:18.116Z,21.65
2018-12-29T12:36:34.167Z,19.02
2018-12-29T12:37:50.310Z,21.68
2018-12-29T12:39:06.240Z,19.67
2018-12-29T12:40:22.106Z,20.95
2018-12-29T12:41:37.999Z,20.72
2018-12-29T12:42:54.011Z,20.70
2018-12-29T12:44:10.167Z,20.68
2018-12-29T12:45:26.680Z,20.50
2018-12-29T12:46:42.751Z,19.98
2018-12-29T12:48:04.990Z,20.68
2018-12-29T12:49:17.372Z,18.67
2018-12-29T12:50:33.432Z,18.32
2018-12-29T12:51:49.349Z,21.07
2018-12-29T12:53:05.220Z,19.55
2018-12-29T12:54:22.086Z,22.40
2018-12-29T12:55:38.275Z,18.60
2018-12-29T12:56:54.380Z,15.55
2018-12-29T12:58:10.453Z,15.65
2018-12-29T12:59:26.543Z,17.45
2018-12-29T13:00:42.563Z,17.10
2018-12-29T13:01:58.843Z,15.78
2018-12-29T13:03:14.837Z,13.78
2018-12-29T13:04:30.764Z,14.55
2018-12-29T13:05:46.561Z,15.43
2018-12-29T13:07:02.290Z,13.80
2018-12-29T13:08:18.172Z,20.10
2018-12-29T13:09:34.287Z,15.55
2018-12-29T13:10:50.548Z,12.40
2018-12-29T13:12:06.371Z,14.40
2018-12-29T13:13:22.151Z,13.18
2018-12-29T13:14:38.145Z,15.40
2018-12-29T13:15:54.029Z,13.93
2018-12-29T13:17:09.992Z,15.00
2018-12-29T13:18:25.897Z,11.73
2018-12-29T13:19:41.787Z,14.03
2018-12-29T13:20:57.586Z,10.50
2018-12-29T13:22:13.875Z,14.68
2018-12-29T13:23:31.694Z,11.48
2018-12-29T13:24:53.596Z,12.40
2018-12-29T13:26:16.822Z,11.78
2018-12-29T13:27:36.285Z,11.15
2018-12-29T13:28:57.534Z,12.60
2018-12-29T13:30:15.823Z,11.75
2018-12-29T13:31:37.172Z,11.90
2018-12-29T13:32:53.663Z,13.15
2018-12-29T13:34:12.174Z,11.28
2018-12-29T13:35:28.951Z,13.13
2018-12-29T13:36:45.089Z,11.30
2018-12-29T13:38:00.865Z,9.43
2018-12-29T13:39:17.256Z,11.12
2018-12-29T13:40:34.156Z,12.40
2018-12-29T13:41:51.263Z,12.50
2018-12-29T13:43:07.117Z,10.50
2018-12-29T13:44:28.012Z,11.57
2018-12-29T13:45:43.266Z,12.33
2018-12-29T13:47:01.842Z,11.93
2018-12-29T13:48:22.192Z,12.98
2018-12-29T13:49:41.096Z,12.23
2018-12-29T13:50:58.559Z,12.25
2018-12-29T13:52:20.944Z,12.55
2018-12-29T13:53:37.203Z,11.50
2018-12-29T13:54:55.990Z,13.28
2018-12-29T13:56:12.649Z,14.90
2018-12-29T13:57:29.142Z,12.58
2018-12-29T13:58:49.148Z,12.68
2018-12-29T14:00:13.467Z,13.18
2018-12-29T14:01:29.579Z,11.45
2018-12-29T14:02:49.704Z,11.33
2018-12-29T14:04:25.090Z,12.85
2018-12-29T14:05:34.823Z,10.65
2018-12-29T14:06:50.564Z,12.43
2018-12-29T14:08:10.625Z,13.00
2018-12-29T14:09:27.977Z,12.50
2018-12-29T14:10:44.991Z,14.13
2018-12-29T14:12:02.162Z,15.98
2018-12-29T14:13:23.352Z,25.25
2018-12-29T14:14:39.248Z,17.62
2018-12-29T14:15:58.691Z,17.73
2018-12-29T14:17:18.352Z,15.53
2018-12-29T14:18:36.952Z,14.58
2018-12-29T14:19:58.196Z,13.68
2018-12-29T14:21:16.110Z,14.60
2018-12-29T14:22:33.770Z,13.48
2018-12-29T14:23:49.740Z,12.98
2018-12-29T14:25:05.598Z,12.90
2018-12-29T14:26:21.951Z,12.78
2018-12-29T14:27:42.818Z,13.20
2018-12-29T14:29:04.793Z,12.25
2018-12-29T14:30:23.816Z,13.00
2018-12-29T14:31:39.765Z,14.23
2018-12-29T14:33:00.662Z,11.05
2018-12-29T14:34:16.260Z,11.80
2018-12-29T14:35:32.726Z,12.78
2018-12-29T14:36:48.839Z,13.62
2018-12-29T14:38:10.855Z,13.03
2018-12-29T14:39:29.286Z,12.15
2018-12-29T14:40:46.139Z,13.45
2018-12-29T14:42:05.459Z,12.30
2018-12-29T14:43:23.658Z,11.10
2018-12-29T14:44:40.583Z,13.08
2018-12-29T14:45:56.371Z,11.68
2018-12-29T14:47:12.252Z,12.40
2018-12-29T14:48:35.853Z,13.18
2018-12-29T14:49:56.354Z,11.10
2018-12-29T14:51:16.765Z,14.63
2018-12-29T14:52:35.770Z,14.38
2018-12-29T14:53:54.987Z,12.18
2018-12-29T14:55:12.458Z,13.08
2018-12-29T14:56:29.041Z,11.30
2018-12-29T14:57:45.673Z,11.33
2018-12-29T14:59:01.982Z,12.93
2018-12-29T15:00:18.736Z,12.43
2018-12-29T15:01:39.164Z,13.08
2018-12-29T15:02:59.652Z,13.80
2018-12-29T15:04:15.528Z,14.00
2018-12-29T15:05:34.593Z,13.53
2018-12-29T15:06:50.950Z,13.48
2018-12-29T15:08:12.029Z,12.85
2018-12-29T15:09:33.985Z,14.10
2018-12-29T15:10:49.972Z,10.63
2018-12-29T15:12:06.582Z,12.00
2018-12-29T15:13:24.868Z,10.58
2018-12-29T15:14:41.311Z,11.53
2018-12-29T15:15:58.262Z,8.80
2018-12-29T15:17:21.959Z,12.25
2018-12-29T15:18:43.461Z,11.63
2018-12-29T15:21:13.166Z,10.78
2018-12-29T15:22:34.206Z,8.38
2018-12-29T15:23:56.067Z,9.70
2018-12-29T15:25:12.025Z,10.58
2018-12-29T15:26:27.898Z,10.65
2018-12-29T15:27:43.731Z,10.93
2018-12-29T15:28:59.671Z,8.88
2018-12-29T15:30:15.630Z,11.10
2018-12-29T15:31:31.775Z,9.90
2018-12-29T15:32:48.104Z,10.23
2018-12-29T15:34:03.760Z,10.48
2018-12-29T15:35:19.670Z,8.85
2018-12-29T15:36:35.611Z,8.40
2018-12-29T15:37:51.323Z,9.03
2018-12-29T15:39:07.841Z,7.83
2018-12-29T15:40:23.724Z,9.23
2018-12-29T15:41:39.935Z,8.78
2018-12-29T15:42:55.753Z,6.97
2018-12-29T15:44:11.809Z,5.83
2018-12-29T15:45:27.544Z,7.28
2018-12-29T15:46:43.513Z,7.62
2018-12-29T15:47:59.693Z,5.58
2018-12-29T15:49:15.893Z,7.08
2018-12-29T15:50:31.768Z,5.78
2018-12-29T15:51:47.883Z,6.25
2018-12-29T15:53:03.792Z,6.42
2018-12-29T15:54:19.567Z,6.42
2018-12-29T15:55:35.678Z,6.87
2018-12-29T15:56:51.581Z,5.65
2018-12-29T15:58:07.203Z,6.78
2018-12-29T15:59:23.164Z,7.85
2018-12-29T16:00:39.112Z,5.75
2018-12-29T16:01:55.168Z,6.08
2018-12-29T16:03:10.983Z,5.10
2018-12-29T16:04:26.940Z,6.75
2018-12-29T16:05:43.059Z,8.53
2018-12-29T16:06:59.187Z,8.48
2018-12-29T16:08:15.278Z,10.15
2018-12-29T16:09:30.999Z,8.93
2018-12-29T16:10:47.395Z,8.50
2018-12-29T16:12:03.241Z,9.55
2018-12-29T16:13:19.147Z,7.55
2018-12-29T16:14:35.718Z,7.05
2018-12-29T16:15:51.297Z,6.12
2018-12-29T16:17:07.533Z,6.17
2018-12-29T16:18:23.604Z,8.45
2018-12-29T16:19:39.612Z,5.03
2018-12-29T16:20:55.928Z,5.58
2018-12-29T16:22:12.083Z,5.03
2018-12-29T16:23:27.986Z,6.80
2018-12-29T16:24:43.986Z,9.50
2018-12-29T16:25:59.966Z,14.47
2018-12-29T16:27:16.047Z,14.58